createdAt,value
2023-05-23T00:02:47.775Z,3.00
2023-05-23T00:05:59.121Z,5.20
2023-05-23T00:08:45.374Z,4.30
2023-05-23T00:11:47.577Z,5.50
2023-05-23T00:14:45.677Z,6.80
2023-05-23T00:17:25.632Z,3.80
2023-05-23T00:20:00.307Z,5.10
2023-05-23T00:22:43.337Z,4.30
2023-05-23T00:26:11.850Z,4.70
2023-05-23T00:29:01.701Z,4.20
2023-05-23T00:31:32.200Z,6.00
2023-05-23T00:34:35.023Z,4.00
2023-05-23T00:41:50.579Z,4.90
2023-05-23T00:50:10.544Z,4.70
2023-05-23T00:52:45.403Z,4.40
2023-05-23T00:56:18.169Z,5.20
2023-05-23T00:58:58.561Z,6.00
2023-05-23T01:01:58.041Z,4.90
2023-05-23T01:04:39.200Z,4.00
2023-05-23T01:07:40.188Z,4.10
2023-05-23T01:10:50.562Z,4.70
2023-05-23T01:14:06.789Z,5.80
2023-05-23T01:17:31.575Z,5.20
2023-05-23T01:21:07.783Z,5.90
2023-05-23T01:24:49.766Z,4.40
2023-05-23T01:28:14.355Z,5.40
2023-05-23T01:31:41.359Z,6.30
2023-05-23T01:34:12.896Z,5.50
2023-05-23T01:36:52.722Z,4.50
2023-05-23T01:39:34.725Z,5.50
2023-05-23T01:42:14.059Z,5.40
2023-05-23T01:45:03.546Z,7.20
2023-05-23T01:49:58.610Z,4.00
2023-05-23T01:53:18.756Z,4.20
2023-05-23T01:55:57.734Z,4.30
2023-05-23T01:58:32.769Z,5.10
2023-05-23T02:01:38.755Z,4.70
2023-05-23T02:04:29.677Z,3.40
2023-05-23T02:07:26.018Z,5.10
2023-05-23T02:10:18.094Z,4.00
2023-05-23T02:13:30.380Z,3.40
2023-05-23T02:16:25.377Z,7.00
2023-05-23T02:24:33.458Z,6.00
2023-05-23T02:28:02.548Z,5.80
2023-05-23T02:30:37.288Z,4.70
2023-05-23T02:33:50.298Z,6.30
2023-05-23T02:37:05.758Z,4.60
2023-05-23T02:48:40.999Z,4.30
2023-05-23T02:51:34.823Z,5.80
2023-05-23T02:54:14.303Z,7.00
2023-05-23T02:57:14.637Z,4.20
2023-05-23T03:03:07.086Z,3.90
2023-05-23T03:05:53.414Z,5.20
2023-05-23T03:08:50.239Z,5.00
2023-05-23T03:12:53.943Z,3.80
2023-05-23T03:15:47.737Z,4.80
2023-05-23T03:18:29.648Z,6.90
2023-05-23T03:21:45.434Z,4.70
2023-05-23T03:25:23.877Z,6.10
2023-05-23T03:28:03.578Z,5.40
2023-05-23T03:30:42.222Z,4.50
2023-05-23T03:33:43.944Z,6.20
2023-05-23T03:36:35.253Z,6.40
2023-05-23T03:44:24.818Z,4.30
2023-05-23T03:50:17.759Z,4.30
2023-05-23T03:53:46.337Z,6.00
2023-05-23T04:01:31.139Z,6.40
2023-05-23T04:05:17.444Z,4.70
2023-05-23T04:13:44.535Z,5.90
2023-05-23T04:16:54.381Z,4.80
2023-05-23T04:20:04.579Z,5.40
2023-05-23T04:40:00.624Z,8.90
2023-05-23T05:18:42.612Z,5.70
2023-05-23T05:22:04.372Z,6.20
2023-05-23T05:28:33.369Z,5.40
2023-05-23T05:31:15.598Z,6.40
2023-05-23T05:38:51.160Z,15.30
2023-05-23T05:42:07.165Z,7.70
2023-05-23T05:44:44.870Z,7.80
2023-05-23T05:47:36.112Z,6.10
2023-05-23T05:51:02.653Z,7.00
2023-05-23T05:54:12.726Z,5.50
2023-05-23T06:01:30.155Z,8.90
2023-05-23T06:04:49.907Z,6.00
2023-05-23T06:07:47.114Z,5.90
2023-05-23T06:15:29.170Z,9.70
2023-05-23T06:18:59.796Z,6.80
2023-05-23T06:21:47.809Z,5.40
2023-05-23T06:27:19.596Z,7.80
2023-05-23T06:30:18.742Z,7.90
2023-05-23T06:33:36.767Z,6.10
2023-05-23T06:36:35.340Z,5.90
2023-05-23T06:39:24.874Z,6.40
2023-05-23T06:42:01.240Z,6.10
2023-05-23T06:45:56.065Z,8.20
2023-05-23T06:56:56.754Z,5.50
2023-05-23T07:03:31.346Z,6.90
2023-05-23T07:07:30.098Z,5.90
2023-05-23T07:11:01.182Z,4.90
2023-05-23T07:13:56.399Z,5.30
2023-05-23T07:17:37.000Z,9.50
2023-05-23T07:21:37.984Z,6.70
2023-05-23T07:24:26.355Z,4.00
2023-05-23T07:27:32.198Z,5.20
2023-05-23T07:30:38.364Z,4.70
2023-05-23T07:34:13.225Z,5.60
2023-05-23T07:37:37.006Z,5.00
2023-05-23T07:41:12.726Z,5.30
2023-05-23T07:44:39.703Z,5.70
2023-05-23T07:47:49.616Z,6.20
2023-05-23T07:55:42.398Z,5.20
2023-05-23T08:03:29.049Z,4.20
2023-05-23T08:06:21.079Z,5.00
2023-05-23T08:10:05.904Z,5.10
2023-05-23T08:13:12.484Z,4.80
2023-05-23T08:17:06.556Z,4.90
2023-05-23T08:20:14.339Z,7.20
2023-05-23T08:23:18.334Z,8.40
2023-05-23T08:26:20.763Z,6.00
2023-05-23T08:29:51.638Z,4.80
2023-05-23T08:33:11.370Z,5.80
2023-05-23T08:36:49.855Z,7.30
2023-05-23T08:39:40.155Z,4.30
2023-05-23T08:44:43.451Z,4.70
2023-05-23T08:47:53.974Z,4.80
2023-05-23T08:51:52.341Z,7.00
2023-05-23T08:54:57.037Z,4.60
2023-05-23T09:12:48.647Z,5.40
2023-05-23T09:16:01.862Z,5.10
2023-05-23T09:19:27.305Z,5.40
2023-05-23T09:22:39.896Z,6.00
2023-05-23T09:25:50.376Z,5.40
2023-05-23T09:28:40.453Z,4.60
2023-05-23T09:31:34.434Z,5.20
2023-05-23T09:39:32.619Z,5.00
2023-05-23T09:42:55.463Z,4.70
2023-05-23T09:51:13.273Z,3.80
2023-05-23T09:54:35.053Z,5.30
2023-05-23T09:57:37.916Z,3.70
2023-05-23T10:09:56.904Z,7.00
2023-05-23T10:49:57.526Z,5.50
2023-05-23T10:53:01.155Z,3.70
2023-05-23T11:04:50.338Z,5.30
2023-05-23T11:08:47.056Z,4.60
2023-05-23T11:12:43.593Z,10.30
2023-05-23T11:20:28.488Z,6.10
2023-05-23T11:23:14.920Z,5.30
2023-05-23T11:26:55.703Z,7.40
2023-05-23T11:38:45.769Z,6.10
2023-05-23T11:41:53.039Z,6.40
2023-05-23T11:48:35.928Z,5.60
2023-05-23T11:52:24.432Z,7.50
2023-05-23T11:55:16.403Z,7.80
2023-05-23T11:58:07.168Z,9.50
2023-05-23T12:02:11.572Z,5.70
2023-05-23T12:06:14.228Z,7.30
2023-05-23T12:13:55.641Z,5.10
2023-05-23T12:21:17.135Z,5.30
2023-05-23T12:24:05.034Z,4.70
2023-05-23T12:27:26.483Z,4.40
2023-05-23T12:30:25.186Z,3.80
2023-05-23T12:33:53.649Z,4.80
2023-05-23T12:41:16.623Z,4.20
2023-05-23T12:44:17.470Z,6.20
2023-05-23T12:47:15.170Z,6.20
2023-05-23T12:50:40.404Z,4.90
2023-05-23T13:02:46.887Z,5.50
2023-05-23T13:09:46.420Z,5.70
2023-05-23T14:07:26.843Z,5.40
2023-05-23T14:10:51.645Z,5.30
2023-05-23T14:14:12.045Z,7.00
2023-05-23T14:17:29.750Z,6.80
2023-05-23T14:20:37.055Z,6.80
2023-05-23T14:24:12.064Z,4.50
2023-05-23T14:32:35.447Z,5.50
2023-05-23T14:35:25.304Z,5.50
2023-05-23T14:38:25.604Z,5.10
2023-05-23T14:46:58.691Z,5.30
2023-05-23T14:50:21.265Z,5.50
2023-05-23T14:54:04.172Z,4.40
2023-05-23T14:57:15.184Z,5.20
2023-05-23T15:00:08.846Z,4.80
2023-05-23T15:04:10.639Z,5.70
2023-05-23T15:16:38.419Z,4.80
2023-05-23T15:24:56.654Z,7.60
2023-05-23T15:28:30.625Z,5.00
2023-05-23T15:35:48.709Z,5.20
2023-05-23T15:45:40.196Z,4.50
2023-05-23T15:48:38.479Z,6.80
2023-05-23T15:52:18.773Z,4.70
2023-05-23T15:59:25.060Z,7.70
2023-05-23T16:02:43.638Z,3.90
2023-05-23T16:05:19.995Z,6.10
2023-05-23T16:11:57.359Z,5.20
2023-05-23T16:14:26.614Z,4.00
2023-05-23T16:16:56.634Z,5.70
2023-05-23T16:26:57.075Z,6.50
2023-05-23T16:34:08.195Z,5.20
2023-05-23T16:36:37.097Z,5.40
2023-05-23T16:39:04.522Z,4.70
2023-05-23T16:41:34.111Z,5.90
2023-05-23T16:44:01.332Z,6.10
2023-05-23T16:46:30.166Z,4.40
2023-05-23T16:48:59.207Z,6.40
2023-05-23T16:51:32.956Z,7.90
2023-05-23T16:54:01.640Z,6.00
2023-05-23T16:56:30.798Z,6.40
2023-05-23T16:58:58.204Z,6.30
2023-05-23T17:01:29.366Z,4.70
2023-05-23T17:03:58.444Z,7.80
2023-05-23T17:06:31.254Z,7.20
2023-05-23T17:08:59.062Z,8.20
2023-05-23T17:11:27.185Z,5.50
2023-05-23T17:18:09.332Z,5.10
2023-05-23T17:21:36.529Z,7.50
2023-05-23T17:24:19.357Z,8.50
2023-05-23T17:27:12.115Z,6.50
2023-05-23T17:34:17.574Z,7.50
2023-05-23T17:45:43.379Z,6.30
2023-05-23T17:48:48.031Z,6.30
2023-05-23T18:00:35.844Z,7.30
2023-05-23T18:04:41.992Z,5.60
2023-05-23T18:19:04.973Z,6.40
2023-05-23T18:31:18.020Z,9.00
2023-05-23T18:34:43.740Z,7.90
2023-05-23T18:57:37.086Z,9.40
2023-05-23T19:24:26.944Z,11.10
2023-05-23T19:48:42.066Z,15.30
2023-05-23T20:01:31.037Z,6.60
2023-05-23T20:28:52.680Z,7.20
2023-05-23T20:36:35.251Z,6.40
2023-05-23T20:40:00.566Z,7.10
2023-05-23T20:48:01.597Z,5.30
2023-05-23T20:51:33.811Z,5.20
2023-05-23T20:55:23.494Z,4.90
2023-05-23T21:04:21.075Z,10.40
2023-05-23T21:22:44.279Z,16.70
2023-05-23T21:40:31.878Z,12.20
2023-05-23T21:44:48.349Z,11.40
2023-05-23T21:47:46.307Z,14.70
2023-05-23T21:51:17.451Z,16.90
2023-05-23T21:53:59.785Z,16.00
2023-05-23T21:56:52.614Z,15.80
2023-05-23T22:00:15.067Z,17.80
2023-05-23T22:03:19.735Z,16.70
2023-05-23T22:06:44.371Z,20.00
2023-05-23T22:19:10.006Z,23.50
2023-05-23T22:21:39.190Z,22.30
2023-05-23T22:24:07.577Z,22.70
2023-05-23T22:26:39.555Z,25.80
2023-05-23T22:29:11.600Z,24.60
2023-05-23T22:31:44.273Z,24.60
2023-05-23T22:34:52.016Z,23.10
2023-05-23T22:37:43.234Z,17.00
2023-05-23T22:41:14.012Z,20.20
2023-05-23T22:43:58.003Z,19.50
2023-05-23T22:47:09.181Z,14.70
2023-05-23T22:49:45.318Z,17.30
2023-05-23T22:52:21.296Z,13.00
2023-05-23T23:01:00.202Z,12.50
2023-05-23T23:03:46.500Z,13.10
2023-05-23T23:07:24.744Z,11.40
2023-05-23T23:14:35.526Z,13.40
2023-05-23T23:17:53.500Z,12.70
2023-05-23T23:21:24.700Z,13.00
2023-05-23T23:24:15.320Z,11.90
2023-05-23T23:31:41.148Z,15.00
2023-05-23T23:34:35.393Z,10.80
2023-05-23T23:37:35.709Z,14.40
2023-05-23T23:41:15.403Z,12.00
2023-05-23T23:43:59.667Z,18.70
2023-05-23T23:46:54.623Z,13.90
2023-05-23T23:58:49.522Z,15.10
